Time;durP1;ratioP1;P1;durP2;ratioP2;P2;SDS_P1;SDS_P2;PMS_P1;PMS_P2;Temp;Humidity;BMP_temperature;BMP_pressure;BME280_temperature;BME280_humidity;BME280_pressure;Samples;Min_cycle;Max_cycle;Signal;HPM_P1;HPM_P2
2021/05/14 00:00:28;;;;;;;12.65;10.38;;;;;;;;;;5111173;28;20108;-62
2021/05/14 00:02:53;;;;;;;11.40;10.15;;;;;;;;;;5107253;28;20066;-62
2021/05/14 00:05:19;;;;;;;14.82;10.52;;;;;;;;;;5110297;28;20478;-62
2021/05/14 00:07:44;;;;;;;12.02;10.43;;;;;;;;;;5106505;28;20142;-62
2021/05/14 00:10:10;;;;;;;12.43;11.10;;;;;;;;;;5104068;28;20027;-62
2021/05/14 00:12:35;;;;;;;12.18;10.65;;;;;;;;;;5107113;28;20462;-62
2021/05/14 00:15:01;;;;;;;12.93;11.43;;;;;;;;;;5109505;28;20016;-61
2021/05/14 00:17:26;;;;;;;12.32;9.95;;;;;;;;;;5102266;28;20467;-62
2021/05/14 00:19:51;;;;;;;11.45;10.23;;;;;;;;;;5111948;28;20015;-62
2021/05/14 00:22:17;;;;;;;11.45;9.45;;;;;;;;;;5109630;28;20016;-62
2021/05/14 00:24:42;;;;;;;11.23;10.02;;;;;;;;;;5107902;28;20474;-62
2021/05/14 00:27:07;;;;;;;14.15;10.40;;;;;;;;;;5105797;28;20101;-62
2021/05/14 00:29:32;;;;;;;11.63;9.50;;;;;;;;;;5101482;28;20379;-61
2021/05/14 00:31:58;;;;;;;14.38;9.93;;;;;;;;;;5092337;28;20035;-61
2021/05/14 00:34:23;;;;;;;10.20;9.05;;;;;;;;;;5094172;28;20020;-62
2021/05/14 00:36:48;;;;;;;10.80;9.48;;;;;;;;;;5093307;28;20089;-62
2021/05/14 00:39:14;;;;;;;10.68;9.40;;;;;;;;;;5095058;28;20036;-62
2021/05/14 00:41:39;;;;;;;11.48;10.00;;;;;;;;;;5111213;28;20352;-62
2021/05/14 00:44:30;;;;;;;9.77;8.82;;;;;;;;;;5101946;28;20020;-62
2021/05/14 00:46:56;;;;;;;10.52;9.43;;;;;;;;;;5104166;28;20047;-62
2021/05/14 00:49:22;;;;;;;10.13;9.13;;;;;;;;;;5098190;28;20107;-62
2021/05/14 00:51:47;;;;;;;10.35;9.35;;;;;;;;;;5106881;28;20103;-62
2021/05/14 00:54:14;;;;;;;9.00;8.18;;;;;;;;;;5100374;28;20020;-62
2021/05/14 00:56:39;;;;;;;9.30;8.30;;;;;;;;;;5090105;28;20466;-62
2021/05/14 00:59:05;;;;;;;10.18;8.80;;;;;;;;;;5095146;28;20050;-62
2021/05/14 01:01:30;;;;;;;10.32;8.50;;;;;;;;;;5101273;28;20060;-62
2021/05/14 01:03:55;;;;;;;12.48;10.05;;;;;;;;;;5108810;28;20110;-62
2021/05/14 01:06:20;;;;;;;11.13;9.85;;;;;;;;;;5088893;28;20115;-62
2021/05/14 01:08:45;;;;;;;11.80;10.38;;;;;;;;;;5108554;28;20111;-62
2021/05/14 01:11:11;;;;;;;12.82;10.15;;;;;;;;;;5107402;28;20099;-62
2021/05/14 01:13:36;;;;;;;11.73;10.52;;;;;;;;;;5097821;28;20028;-62
2021/05/14 01:16:01;;;;;;;13.15;9.55;;;;;;;;;;5096421;28;20020;-62
2021/05/14 01:18:26;;;;;;;11.70;9.35;;;;;;;;;;5102293;28;20020;-62
2021/05/14 01:20:52;;;;;;;11.45;8.88;;;;;;;;;;5110910;28;20027;-62
2021/05/14 01:23:17;;;;;;;10.70;9.25;;;;;;;;;;5113481;28;20030;-62
2021/05/14 01:25:42;;;;;;;12.45;9.77;;;;;;;;;;5108626;28;20027;-62
2021/05/14 01:28:07;;;;;;;11.77;9.43;;;;;;;;;;5112200;28;20063;-62
2021/05/14 01:30:33;;;;;;;13.20;9.40;;;;;;;;;;5106142;28;20030;-62
2021/05/14 01:32:58;;;;;;;11.98;10.55;;;;;;;;;;5113484;28;20026;-62
2021/05/14 01:35:23;;;;;;;12.18;9.63;;;;;;;;;;5099602;28;20022;-62
2021/05/14 01:37:48;;;;;;;12.95;9.70;;;;;;;;;;5090539;28;20020;-61
2021/05/14 01:40:14;;;;;;;12.48;9.80;;;;;;;;;;5102385;28;20016;-61
2021/05/14 01:42:48;;;;;;;12.40;9.82;;;;;;;;;;5100595;28;20020;-61
2021/05/14 01:45:14;;;;;;;10.82;8.73;;;;;;;;;;5107510;28;20023;-61
2021/05/14 01:47:40;;;;;;;10.20;7.97;;;;;;;;;;5112349;28;20022;-61
2021/05/14 01:50:06;;;;;;;8.15;7.35;;;;;;;;;;5113957;28;20094;-61
2021/05/14 01:52:31;;;;;;;8.65;7.22;;;;;;;;;;5114550;28;20058;-61
2021/05/14 01:54:56;;;;;;;8.88;6.78;;;;;;;;;;5097730;28;20084;-61
2021/05/14 01:57:21;;;;;;;6.72;6.07;;;;;;;;;;5103657;28;20027;-61
2021/05/14 01:59:47;;;;;;;7.85;7.03;;;;;;;;;;5094304;28;20012;-61
2021/05/14 02:02:18;;;;;;;10.55;8.25;;;;;;;;;;5101645;28;20059;-61
2021/05/14 02:04:44;;;;;;;10.18;7.32;;;;;;;;;;5099985;28;20434;-61
2021/05/14 02:07:09;;;;;;;9.63;7.00;;;;;;;;;;5111374;28;20027;-61
2021/05/14 02:09:34;;;;;;;10.52;7.32;;;;;;;;;;5103526;28;20039;-61
2021/05/14 02:11:59;;;;;;;8.70;7.32;;;;;;;;;;5106881;28;20024;-61
2021/05/14 02:14:24;;;;;;;9.68;7.95;;;;;;;;;;5096964;28;20023;-61
2021/05/14 02:16:50;;;;;;;11.23;8.60;;;;;;;;;;5111179;28;20032;-61
2021/05/14 02:19:16;;;;;;;8.13;7.30;;;;;;;;;;5099778;28;20028;-61
2021/05/14 02:21:41;;;;;;;8.05;7.22;;;;;;;;;;5093931;28;20025;-61
2021/05/14 02:24:07;;;;;;;9.15;7.95;;;;;;;;;;5098369;28;20017;-61
2021/05/14 02:26:32;;;;;;;9.73;8.32;;;;;;;;;;5109178;27;20043;-61
2021/05/14 02:28:57;;;;;;;7.60;6.80;;;;;;;;;;5114138;28;20458;-61
2021/05/14 02:31:23;;;;;;;10.38;7.40;;;;;;;;;;5113108;28;20028;-61
2021/05/14 02:33:48;;;;;;;7.85;7.05;;;;;;;;;;5114880;28;20051;-61
2021/05/14 02:36:14;;;;;;;8.05;7.20;;;;;;;;;;5109286;28;20078;-61
2021/05/14 02:38:39;;;;;;;9.05;7.57;;;;;;;;;;5109988;28;20473;-60
2021/05/14 02:41:08;;;;;;;9.45;7.60;;;;;;;;;;5109815;28;20015;-61
2021/05/14 02:43:33;;;;;;;9.20;7.05;;;;;;;;;;5110612;28;20016;-61
2021/05/14 02:45:59;;;;;;;7.43;6.70;;;;;;;;;;5102203;28;20319;-61
2021/05/14 02:48:24;;;;;;;7.80;6.55;;;;;;;;;;5093642;28;20055;-61
2021/05/14 02:50:49;;;;;;;8.63;6.97;;;;;;;;;;5093702;28;20027;-61
2021/05/14 02:53:14;;;;;;;8.13;6.63;;;;;;;;;;5095075;28;20429;-60
2021/05/14 02:55:39;;;;;;;9.00;8.10;;;;;;;;;;5104064;28;20106;-61
2021/05/14 02:58:05;;;;;;;8.48;7.65;;;;;;;;;;5109181;28;20091;-61
2021/05/14 03:00:30;;;;;;;9.02;7.43;;;;;;;;;;5109776;28;20009;-61
2021/05/14 03:02:55;;;;;;;9.30;7.95;;;;;;;;;;5093923;28;20064;-61
2021/05/14 03:05:21;;;;;;;9.07;7.47;;;;;;;;;;5096383;28;20145;-61
2021/05/14 03:07:46;;;;;;;7.90;7.10;;;;;;;;;;5090289;28;20016;-61
2021/05/14 03:10:11;;;;;;;8.13;7.32;;;;;;;;;;5101187;28;20016;-61
2021/05/14 03:12:37;;;;;;;7.90;6.72;;;;;;;;;;5099799;27;20023;-61
2021/05/14 03:15:03;;;;;;;8.95;7.47;;;;;;;;;;5093211;28;20024;-61
2021/05/14 03:17:28;;;;;;;8.73;7.65;;;;;;;;;;5089646;28;20026;-61
2021/05/14 03:19:53;;;;;;;9.75;7.90;;;;;;;;;;5093211;28;20115;-61
2021/05/14 03:22:18;;;;;;;8.75;7.85;;;;;;;;;;5112273;28;20098;-61
2021/05/14 03:24:44;;;;;;;9.32;8.43;;;;;;;;;;5109332;28;20143;-61
2021/05/14 03:27:09;;;;;;;13.68;9.07;;;;;;;;;;5108985;28;20073;-61
2021/05/14 03:29:34;;;;;;;10.27;8.68;;;;;;;;;;5099891;28;20022;-62
2021/05/14 03:31:59;;;;;;;9.90;8.77;;;;;;;;;;5112212;28;20026;-61
2021/05/14 03:34:25;;;;;;;11.20;7.47;;;;;;;;;;5096538;28;20028;-61
2021/05/14 03:36:50;;;;;;;11.35;9.70;;;;;;;;;;5103413;28;20504;-61
2021/05/14 03:39:20;;;;;;;9.60;8.65;;;;;;;;;;5095214;28;20463;-62
2021/05/14 03:41:52;;;;;;;9.80;8.70;;;;;;;;;;5108117;28;20075;-61
2021/05/14 03:44:17;;;;;;;11.65;9.95;;;;;;;;;;5110547;27;20518;-61
2021/05/14 03:46:42;;;;;;;10.80;9.70;;;;;;;;;;5109190;28;20126;-61
2021/05/14 03:49:08;;;;;;;10.40;9.40;;;;;;;;;;5113013;28;20023;-62
2021/05/14 03:51:34;;;;;;;13.70;9.98;;;;;;;;;;5093274;28;20106;-61
2021/05/14 03:53:59;;;;;;;11.02;10.05;;;;;;;;;;5105287;28;20031;-61
2021/05/14 03:56:24;;;;;;;9.90;9.00;;;;;;;;;;5096816;28;20032;-61
2021/05/14 03:58:49;;;;;;;11.30;9.75;;;;;;;;;;5105747;28;20016;-61
2021/05/14 04:01:16;;;;;;;10.85;9.75;;;;;;;;;;5109675;28;20183;-61
2021/05/14 04:03:41;;;;;;;9.32;8.43;;;;;;;;;;5100699;28;20016;-62
2021/05/14 04:06:06;;;;;;;11.23;9.20;;;;;;;;;;5089670;28;20015;-61
2021/05/14 04:08:31;;;;;;;9.73;8.80;;;;;;;;;;5092315;28;20020;-61
2021/05/14 04:11:28;;;;;;;9.57;8.60;;;;;;;;;;5094129;28;20027;-61
2021/05/14 04:16:37;;;;;;;9.70;8.70;;;;;;;;;;5098019;28;20055;-61
2021/05/14 04:19:02;;;;;;;10.18;9.25;;;;;;;;;;5112067;28;20043;-61
2021/05/14 04:21:28;;;;;;;8.88;7.32;;;;;;;;;;5112315;28;20051;-62
2021/05/14 04:23:53;;;;;;;8.50;7.63;;;;;;;;;;5101150;28;20061;-62
2021/05/14 04:26:18;;;;;;;9.07;8.07;;;;;;;;;;5105905;28;20024;-61
2021/05/14 04:28:43;;;;;;;8.57;7.78;;;;;;;;;;5093432;28;20031;-61
2021/05/14 04:31:09;;;;;;;8.10;7.43;;;;;;;;;;5091765;28;20498;-61
2021/05/14 04:33:34;;;;;;;8.40;7.60;;;;;;;;;;5091650;28;20043;-61
2021/05/14 04:35:59;;;;;;;8.70;7.90;;;;;;;;;;5108522;28;20047;-60
2021/05/14 04:38:24;;;;;;;7.45;6.78;;;;;;;;;;5110011;28;20439;-61
2021/05/14 04:40:49;;;;;;;8.30;7.05;;;;;;;;;;5110713;28;20352;-61
2021/05/14 04:43:15;;;;;;;8.75;7.70;;;;;;;;;;5106399;28;20386;-61
2021/05/14 04:45:41;;;;;;;9.43;7.57;;;;;;;;;;5093457;28;20026;-61
2021/05/14 04:48:09;;;;;;;8.20;7.32;;;;;;;;;;5111502;28;20015;-61
2021/05/14 04:50:35;;;;;;;7.50;6.80;;;;;;;;;;5111964;28;20087;-61
2021/05/14 04:53:02;;;;;;;7.68;6.88;;;;;;;;;;5107763;28;20143;-61
2021/05/14 04:55:28;;;;;;;7.72;6.90;;;;;;;;;;5109377;28;20038;-61
2021/05/14 04:57:53;;;;;;;7.35;6.65;;;;;;;;;;5104123;28;20032;-60
2021/05/14 05:00:19;;;;;;;7.28;6.00;;;;;;;;;;5097551;28;20023;-61
2021/05/14 05:02:44;;;;;;;8.00;7.20;;;;;;;;;;5115242;28;20024;-61
2021/05/14 05:05:10;;;;;;;7.43;6.70;;;;;;;;;;5109422;28;20016;-61
2021/05/14 05:07:35;;;;;;;7.88;7.18;;;;;;;;;;5092640;28;20073;-61
2021/05/14 05:10:00;;;;;;;8.25;7.55;;;;;;;;;;5110221;28;20011;-61
2021/05/14 05:12:25;;;;;;;7.82;6.55;;;;;;;;;;5099029;28;20027;-61
2021/05/14 05:14:51;;;;;;;9.23;8.32;;;;;;;;;;5112845;28;20390;-61
2021/05/14 05:17:16;;;;;;;7.05;6.35;;;;;;;;;;5096958;28;20409;-61
2021/05/14 05:19:41;;;;;;;9.23;7.07;;;;;;;;;;5105784;28;20515;-61
2021/05/14 05:22:06;;;;;;;8.50;7.60;;;;;;;;;;5114529;28;20023;-61
2021/05/14 05:24:31;;;;;;;7.63;6.53;;;;;;;;;;5115561;28;20015;-61
2021/05/14 05:26:57;;;;;;;8.48;6.88;;;;;;;;;;5092296;28;20192;-61
2021/05/14 05:29:22;;;;;;;7.05;6.13;;;;;;;;;;5098146;28;20046;-61
2021/05/14 05:31:47;;;;;;;5.13;4.70;;;;;;;;;;5113764;28;20047;-61
2021/05/14 05:34:12;;;;;;;8.15;6.88;;;;;;;;;;5105029;28;20043;-61
2021/05/14 05:36:38;;;;;;;7.60;6.78;;;;;;;;;;5091410;28;20449;-61
2021/05/14 05:39:03;;;;;;;4.40;4.00;;;;;;;;;;5107442;28;20589;-61
2021/05/14 05:41:28;;;;;;;7.82;7.03;;;;;;;;;;5098083;28;20057;-61
2021/05/14 05:43:54;;;;;;;8.45;7.20;;;;;;;;;;5100840;28;20103;-61
2021/05/14 05:46:20;;;;;;;7.50;6.72;;;;;;;;;;5093248;28;20102;-61
2021/05/14 05:48:45;;;;;;;7.05;6.40;;;;;;;;;;5094602;28;20031;-61
2021/05/14 05:51:11;;;;;;;7.50;6.57;;;;;;;;;;5095648;28;20020;-61
2021/05/14 05:53:37;;;;;;;7.50;6.40;;;;;;;;;;5103720;28;20028;-61
2021/05/14 05:56:02;;;;;;;6.05;4.68;;;;;;;;;;5096383;28;20020;-62
2021/05/14 05:58:27;;;;;;;7.60;6.75;;;;;;;;;;5112812;28;20494;-61
2021/05/14 06:00:52;;;;;;;8.25;5.50;;;;;;;;;;5107504;28;20474;-61
2021/05/14 06:03:18;;;;;;;6.00;5.15;;;;;;;;;;5093903;28;20020;-61
2021/05/14 06:05:43;;;;;;;5.80;4.97;;;;;;;;;;5092156;28;20093;-61
2021/05/14 06:08:08;;;;;;;7.20;5.80;;;;;;;;;;5113016;27;20043;-61
2021/05/14 06:10:34;;;;;;;6.72;5.45;;;;;;;;;;5096014;28;20027;-61
2021/05/14 06:12:59;;;;;;;4.80;4.35;;;;;;;;;;5106546;28;20473;-61
2021/05/14 06:15:25;;;;;;;8.38;5.85;;;;;;;;;;5097288;28;20107;-61
2021/05/14 06:17:50;;;;;;;7.40;6.60;;;;;;;;;;5096247;28;20018;-61
2021/05/14 06:20:18;;;;;;;7.15;6.53;;;;;;;;;;5102210;28;20020;-61
2021/05/14 06:22:44;;;;;;;10.55;6.88;;;;;;;;;;5092398;28;20040;-61
2021/05/14 06:25:09;;;;;;;8.18;5.88;;;;;;;;;;5092412;28;20050;-62
2021/05/14 06:27:35;;;;;;;9.13;6.38;;;;;;;;;;5098932;28;20509;-61
2021/05/14 06:30:00;;;;;;;9.73;6.88;;;;;;;;;;5102000;28;20051;-61
2021/05/14 06:32:25;;;;;;;8.98;8.02;;;;;;;;;;5096506;28;20059;-62
2021/05/14 06:34:53;;;;;;;7.70;7.00;;;;;;;;;;5095032;28;20061;-62
2021/05/14 06:37:19;;;;;;;7.97;7.18;;;;;;;;;;5093347;28;20023;-62
2021/05/14 06:39:44;;;;;;;7.57;6.78;;;;;;;;;;5091288;28;20387;-62
2021/05/14 06:42:09;;;;;;;5.00;4.22;;;;;;;;;;5096864;28;20386;-62
2021/05/14 06:44:34;;;;;;;13.13;7.90;;;;;;;;;;5100172;28;20023;-62
2021/05/14 06:47:00;;;;;;;8.07;6.93;;;;;;;;;;5100200;28;20038;-62
2021/05/14 06:49:25;;;;;;;8.48;7.10;;;;;;;;;;5102304;28;20032;-62
2021/05/14 06:51:50;;;;;;;9.25;7.57;;;;;;;;;;5092707;28;20016;-62
2021/05/14 06:54:16;;;;;;;7.15;5.43;;;;;;;;;;5100406;28;20359;-62
2021/05/14 06:56:41;;;;;;;8.70;6.60;;;;;;;;;;5094415;28;20438;-62
2021/05/14 06:59:06;;;;;;;7.40;3.88;;;;;;;;;;5093175;28;20016;-62
2021/05/14 07:01:31;;;;;;;7.90;6.07;;;;;;;;;;5103775;28;20027;-62
2021/05/14 07:03:57;;;;;;;8.30;7.47;;;;;;;;;;5099477;28;20402;-62
2021/05/14 07:06:22;;;;;;;7.68;6.65;;;;;;;;;;5088721;28;20027;-61
2021/05/14 07:08:48;;;;;;;5.22;4.72;;;;;;;;;;5109689;28;20023;-62
2021/05/14 07:11:13;;;;;;;6.25;5.00;;;;;;;;;;5099138;28;20023;-60
2021/05/14 07:13:39;;;;;;;7.93;7.13;;;;;;;;;;5097931;28;20021;-61
2021/05/14 07:16:04;;;;;;;9.05;7.00;;;;;;;;;;5094849;28;20020;-61
2021/05/14 07:18:31;;;;;;;10.82;7.78;;;;;;;;;;5093580;28;20347;-60
2021/05/14 07:20:57;;;;;;;9.00;7.10;;;;;;;;;;5108164;28;20024;-61
2021/05/14 07:23:22;;;;;;;10.20;8.55;;;;;;;;;;5107615;28;20032;-61
2021/05/14 07:25:47;;;;;;;9.35;7.65;;;;;;;;;;5090992;28;20109;-61
2021/05/14 07:28:13;;;;;;;6.95;6.13;;;;;;;;;;5097394;28;20048;-61
2021/05/14 07:30:38;;;;;;;8.57;6.30;;;;;;;;;;5101472;28;20042;-61
2021/05/14 07:33:03;;;;;;;6.47;5.78;;;;;;;;;;5096466;28;20069;-61
2021/05/14 07:35:29;;;;;;;5.25;4.75;;;;;;;;;;5111324;28;20056;-61
2021/05/14 07:37:54;;;;;;;3.90;3.28;;;;;;;;;;5103433;28;20043;-61
2021/05/14 07:40:19;;;;;;;6.97;6.22;;;;;;;;;;5097202;28;20065;-61
2021/05/14 07:42:44;;;;;;;6.63;6.03;;;;;;;;;;5096497;28;20075;-60
2021/05/14 07:45:10;;;;;;;8.73;7.50;;;;;;;;;;5098530;28;20082;-60
2021/05/14 07:47:35;;;;;;;7.60;6.20;;;;;;;;;;5095122;28;20020;-59
2021/05/14 07:50:01;;;;;;;8.25;6.97;;;;;;;;;;5103719;28;20012;-60
2021/05/14 07:52:27;;;;;;;9.23;6.32;;;;;;;;;;5107327;28;20046;-60
2021/05/14 07:54:52;;;;;;;6.00;5.40;;;;;;;;;;5108328;28;20110;-60
2021/05/14 07:57:17;;;;;;;6.20;3.28;;;;;;;;;;5101057;28;20024;-60
2021/05/14 07:59:42;;;;;;;7.18;5.53;;;;;;;;;;5099222;28;20032;-60
2021/05/14 08:02:08;;;;;;;8.73;6.50;;;;;;;;;;5095542;28;20424;-60
2021/05/14 08:04:33;;;;;;;8.00;6.28;;;;;;;;;;5098522;28;20099;-60
2021/05/14 08:06:58;;;;;;;8.30;6.15;;;;;;;;;;5107824;28;20116;-60
2021/05/14 08:09:24;;;;;;;4.00;2.70;;;;;;;;;;5111006;28;20023;-60
2021/05/14 08:11:50;;;;;;;6.30;5.70;;;;;;;;;;5097918;28;20269;-61
2021/05/14 08:14:16;;;;;;;7.30;5.70;;;;;;;;;;5102862;28;20028;-61
2021/05/14 08:16:41;;;;;;;6.85;6.07;;;;;;;;;;5087904;28;20033;-61
2021/05/14 08:19:06;;;;;;;6.22;5.63;;;;;;;;;;5102485;28;20467;-61
2021/05/14 08:21:31;;;;;;;6.68;4.82;;;;;;;;;;5098734;28;20094;-61
2021/05/14 08:23:57;;;;;;;5.78;5.13;;;;;;;;;;5102185;28;20031;-60
2021/05/14 08:26:22;;;;;;;5.35;3.33;;;;;;;;;;5102902;28;20047;-63
2021/05/14 08:28:47;;;;;;;5.20;3.55;;;;;;;;;;5096460;28;20020;-61
2021/05/14 08:31:13;;;;;;;4.28;3.47;;;;;;;;;;5091588;28;20028;-61
2021/05/14 08:33:38;;;;;;;5.22;4.43;;;;;;;;;;5104416;28;20026;-60
2021/05/14 08:36:04;;;;;;;3.90;2.72;;;;;;;;;;5096117;28;20036;-61
2021/05/14 08:38:29;;;;;;;4.70;3.53;;;;;;;;;;5091146;28;20030;-61
2021/05/14 08:40:54;;;;;;;2.65;2.22;;;;;;;;;;5095653;28;20020;-61
2021/05/14 08:43:20;;;;;;;4.05;2.08;;;;;;;;;;5093091;27;20008;-61
2021/05/14 08:45:45;;;;;;;6.38;2.97;;;;;;;;;;5088834;28;20061;-61
2021/05/14 08:48:15;;;;;;;3.30;2.60;;;;;;;;;;5091526;28;20386;-61
2021/05/14 08:50:41;;;;;;;4.70;2.80;;;;;;;;;;5089483;28;20020;-61
2021/05/14 08:53:06;;;;;;;3.40;2.72;;;;;;;;;;5106753;28;20027;-61
2021/05/14 08:55:32;;;;;;;2.65;2.30;;;;;;;;;;5093253;28;20038;-61
2021/05/14 08:57:58;;;;;;;5.00;2.40;;;;;;;;;;5094376;28;20047;-61
2021/05/14 09:00:23;;;;;;;3.30;2.78;;;;;;;;;;5111555;28;20019;-61
2021/05/14 09:02:50;;;;;;;4.70;2.90;;;;;;;;;;5098021;28;20020;-61
2021/05/14 09:05:32;;;;;;;3.13;2.15;;;;;;;;;;5102855;28;20134;-61
2021/05/14 09:07:58;;;;;;;6.00;2.08;;;;;;;;;;5090267;28;20095;-61
2021/05/14 09:10:24;;;;;;;2.83;2.10;;;;;;;;;;5090803;28;20117;-61
2021/05/14 09:12:50;;;;;;;2.72;1.77;;;;;;;;;;5092595;28;20038;-61
2021/05/14 09:15:19;;;;;;;2.53;0.98;;;;;;;;;;5091372;28;20031;-61
2021/05/14 09:18:01;;;;;;;2.65;1.00;;;;;;;;;;5088271;28;20028;-61
2021/05/14 09:20:47;;;;;;;1.23;1.08;;;;;;;;;;5091205;28;20084;-61
2021/05/14 09:23:15;;;;;;;5.45;1.48;;;;;;;;;;5119927;28;20047;-61
2021/05/14 09:25:48;;;;;;;2.47;1.27;;;;;;;;;;5109300;28;20102;-61
2021/05/14 09:28:20;;;;;;;3.30;1.30;;;;;;;;;;5090744;28;20056;-61
2021/05/14 09:31:05;;;;;;;2.38;1.30;;;;;;;;;;5101746;28;20043;-62
2021/05/14 09:33:31;;;;;;;;;;;;;;;;;;5105890;28;20036;-61
2021/05/14 09:35:57;;;;;;;3.33;1.27;;;;;;;;;;5108623;28;19939;-61
2021/05/14 09:38:22;;;;;;;3.25;2.28;;;;;;;;;;5111352;28;20018;-61
2021/05/14 09:40:47;;;;;;;2.75;1.67;;;;;;;;;;5111090;28;20011;-61
2021/05/14 09:43:12;;;;;;;3.85;2.25;;;;;;;;;;5105855;28;20141;-61
2021/05/14 09:45:38;;;;;;;3.70;1.40;;;;;;;;;;5111918;28;20405;-61
2021/05/14 09:48:14;;;;;;;2.30;1.30;;;;;;;;;;5112827;28;20019;-61
2021/05/14 09:50:40;;;;;;;3.80;1.50;;;;;;;;;;5111216;28;20097;-61
2021/05/14 09:53:09;;;;;;;2.88;1.85;;;;;;;;;;5100596;28;20076;-61
2021/05/14 09:55:36;;;;;;;2.90;2.40;;;;;;;;;;5094052;28;20474;-61
2021/05/14 09:58:08;;;;;;;4.00;3.38;;;;;;;;;;5093816;28;20031;-61
2021/05/14 10:00:33;;;;;;;4.50;3.35;;;;;;;;;;5112205;28;20031;-61
2021/05/14 10:02:59;;;;;;;3.78;2.97;;;;;;;;;;5094411;28;20052;-61
2021/05/14 10:05:24;;;;;;;3.45;2.80;;;;;;;;;;5094599;28;20100;-61
2021/05/14 10:07:50;;;;;;;4.05;3.67;;;;;;;;;;5090076;28;20028;-61
2021/05/14 10:10:15;;;;;;;3.85;3.00;;;;;;;;;;5094239;28;20628;-61
2021/05/14 10:12:41;;;;;;;4.47;3.35;;;;;;;;;;5095990;28;20016;-61
2021/05/14 10:15:07;;;;;;;5.03;3.13;;;;;;;;;;5114229;28;20410;-61
2021/05/14 10:17:33;;;;;;;4.68;3.90;;;;;;;;;;5097564;27;20490;-61
2021/05/14 10:19:59;;;;;;;4.72;4.20;;;;;;;;;;5094007;28;20020;-61
2021/05/14 10:22:25;;;;;;;4.30;3.58;;;;;;;;;;5096406;28;20068;-61
2021/05/14 10:24:54;;;;;;;4.53;3.65;;;;;;;;;;5093964;28;20111;-61
2021/05/14 10:27:23;;;;;;;3.85;3.45;;;;;;;;;;5089422;28;20052;-61
2021/05/14 10:29:49;;;;;;;4.45;3.63;;;;;;;;;;5092899;28;20028;-61
2021/05/14 10:32:14;;;;;;;4.38;3.97;;;;;;;;;;5109360;28;20386;-61
2021/05/14 10:34:39;;;;;;;4.32;3.90;;;;;;;;;;5113784;28;20015;-61
2021/05/14 10:37:05;;;;;;;4.78;4.00;;;;;;;;;;5110928;28;20019;-61
2021/05/14 10:39:40;;;;;;;6.05;4.40;;;;;;;;;;5113606;28;20036;-61
2021/05/14 10:42:08;;;;;;;;;;;;;;;;;;5101562;27;20103;-61
2021/05/14 10:44:46;;;;;;;4.10;3.70;;;;;;;;;;5092091;28;19904;-61
2021/05/14 10:47:23;;;;;;;6.00;3.92;;;;;;;;;;5089975;28;20016;-61
2021/05/14 10:49:55;;;;;;;4.47;4.07;;;;;;;;;;5094188;28;20021;-61
2021/05/14 10:52:21;;;;;;;4.90;3.70;;;;;;;;;;5097763;28;20022;-61
2021/05/14 10:54:46;;;;;;;4.30;3.90;;;;;;;;;;5108355;28;20023;-61
2021/05/14 10:57:12;;;;;;;4.95;3.55;;;;;;;;;;5110785;28;20407;-61
2021/05/14 10:59:38;;;;;;;4.18;3.05;;;;;;;;;;5112229;28;20023;-61
2021/05/14 11:02:21;;;;;;;3.92;3.50;;;;;;;;;;5113419;28;20375;-61
2021/05/14 11:04:48;;;;;;;3.42;3.13;;;;;;;;;;5101213;28;20028;-61
2021/05/14 11:07:31;;;;;;;4.22;3.20;;;;;;;;;;5092576;28;20020;-61
2021/05/14 11:10:12;;;;;;;3.72;2.92;;;;;;;;;;5098127;28;20046;-61
2021/05/14 11:12:37;;;;;;;2.80;2.60;;;;;;;;;;5100548;28;20026;-61
2021/05/14 11:15:02;;;;;;;2.45;2.25;;;;;;;;;;5106776;28;20016;-61
2021/05/14 11:17:27;;;;;;;4.82;2.40;;;;;;;;;;5103122;28;20058;-61
2021/05/14 11:19:54;;;;;;;2.67;2.38;;;;;;;;;;5101446;28;20145;-61
2021/05/14 11:22:19;;;;;;;4.00;2.90;;;;;;;;;;5103244;28;20061;-61
2021/05/14 11:24:45;;;;;;;3.88;2.50;;;;;;;;;;5101891;28;20414;-62
2021/05/14 11:27:14;;;;;;;3.10;2.80;;;;;;;;;;5095415;28;20442;-61
2021/05/14 11:29:42;;;;;;;3.92;3.63;;;;;;;;;;5111719;28;20148;-62
2021/05/14 11:32:14;;;;;;;3.50;3.20;;;;;;;;;;5092337;28;20016;-61
2021/05/14 11:34:52;;;;;;;5.60;3.90;;;;;;;;;;5090655;28;20475;-61
2021/05/14 11:37:17;;;;;;;3.92;3.58;;;;;;;;;;5106291;28;20100;-61
2021/05/14 11:39:43;;;;;;;4.75;3.97;;;;;;;;;;5102889;28;20462;-61
2021/05/14 11:42:15;;;;;;;4.30;3.90;;;;;;;;;;5098916;28;20051;-61
2021/05/14 11:44:52;;;;;;;5.85;3.95;;;;;;;;;;5100788;28;20490;-61
2021/05/14 11:47:17;;;;;;;4.72;4.32;;;;;;;;;;5102116;28;20027;-62
2021/05/14 11:49:42;;;;;;;4.28;3.88;;;;;;;;;;5106570;28;20429;-62
2021/05/14 11:52:08;;;;;;;4.53;4.13;;;;;;;;;;5096741;28;20051;-61
2021/05/14 11:54:34;;;;;;;4.75;4.18;;;;;;;;;;5098585;28;20032;-61
2021/05/14 11:57:00;;;;;;;4.38;4.00;;;;;;;;;;5094317;28;20076;-61
2021/05/14 11:59:25;;;;;;;5.65;4.95;;;;;;;;;;5099511;28;20030;-61
2021/05/14 12:01:51;;;;;;;4.95;4.55;;;;;;;;;;5099041;28;21791;-61
2021/05/14 12:04:16;;;;;;;6.00;5.07;;;;;;;;;;5110808;28;20482;-61
2021/05/14 12:06:48;;;;;;;5.78;4.40;;;;;;;;;;5097625;28;20027;-61
2021/05/14 12:09:14;;;;;;;5.30;4.82;;;;;;;;;;5110123;28;20153;-62
2021/05/14 12:11:40;;;;;;;5.18;4.78;;;;;;;;;;5096058;28;20102;-61
2021/05/14 12:14:07;;;;;;;5.00;4.07;;;;;;;;;;5108455;28;20104;-61
2021/05/14 12:16:35;;;;;;;5.93;5.00;;;;;;;;;;5099396;28;20466;-62
2021/05/14 12:19:02;;;;;;;4.85;4.45;;;;;;;;;;5106917;28;20047;-61
2021/05/14 12:21:28;;;;;;;6.43;5.82;;;;;;;;;;5110756;28;20535;-61
2021/05/14 12:23:54;;;;;;;7.35;5.40;;;;;;;;;;5098566;28;20028;-62
2021/05/14 12:26:20;;;;;;;6.15;5.13;;;;;;;;;;5101547;28;20011;-62
2021/05/14 12:28:46;;;;;;;6.55;5.85;;;;;;;;;;5105767;28;20031;-62
2021/05/14 12:31:12;;;;;;;4.68;3.95;;;;;;;;;;5090908;28;20028;-62
2021/05/14 12:33:51;;;;;;;1.77;1.17;;;;;;;;;;5091558;28;20020;-62
2021/05/14 12:36:25;;;;;;;2.40;1.40;;;;;;;;;;5091929;28;20024;-62
2021/05/14 12:38:51;;;;;;;1.13;0.65;;;;;;;;;;5092050;28;20018;-62
2021/05/14 12:41:20;;;;;;;1.65;0.90;;;;;;;;;;5099633;28;20449;-62
2021/05/14 12:43:46;;;;;;;2.17;1.20;;;;;;;;;;5111893;28;20144;-62
2021/05/14 12:46:11;;;;;;;1.33;0.75;;;;;;;;;;5103095;28;20015;-62
2021/05/14 12:48:36;;;;;;;1.30;1.20;;;;;;;;;;5096609;28;20109;-62
2021/05/14 12:51:01;;;;;;;1.20;0.90;;;;;;;;;;5091487;28;20108;-62
2021/05/14 12:53:26;;;;;;;1.10;1.00;;;;;;;;;;5090639;28;20052;-62
2021/05/14 12:55:52;;;;;;;1.13;1.05;;;;;;;;;;5095789;28;20114;-62
2021/05/14 12:58:18;;;;;;;2.33;1.00;;;;;;;;;;5109959;28;20090;-62
2021/05/14 13:00:43;;;;;;;0.70;0.70;;;;;;;;;;5092133;28;20219;-62
2021/05/14 13:03:10;;;;;;;2.05;1.33;;;;;;;;;;5100962;28;20008;-62
2021/05/14 13:05:39;;;;;;;1.50;0.60;;;;;;;;;;5109451;28;20016;-62
2021/05/14 13:08:06;;;;;;;1.40;1.30;;;;;;;;;;5108741;28;20046;-62
2021/05/14 13:10:35;;;;;;;1.73;1.63;;;;;;;;;;5098547;28;20487;-62
2021/05/14 13:13:01;;;;;;;1.40;1.30;;;;;;;;;;5097215;28;20098;-62
2021/05/14 13:15:26;;;;;;;2.50;1.70;;;;;;;;;;5104900;28;20107;-61
2021/05/14 13:17:53;;;;;;;3.10;2.28;;;;;;;;;;5108833;28;20024;-61
2021/05/14 13:20:18;;;;;;;3.00;2.80;;;;;;;;;;5103478;28;20458;-62
2021/05/14 13:22:43;;;;;;;3.20;2.58;;;;;;;;;;5103974;28;20099;-61
2021/05/14 13:25:08;;;;;;;3.42;2.35;;;;;;;;;;5104276;28;20493;-61
2021/05/14 13:27:34;;;;;;;2.80;2.20;;;;;;;;;;5101819;28;20402;-62
2021/05/14 13:29:59;;;;;;;2.42;2.15;;;;;;;;;;5099135;28;20027;-62
2021/05/14 13:32:24;;;;;;;2.75;2.55;;;;;;;;;;5111574;28;20055;-62
2021/05/14 13:34:49;;;;;;;2.92;2.60;;;;;;;;;;5098196;28;20156;-62
2021/05/14 13:37:18;;;;;;;2.05;1.95;;;;;;;;;;5111803;28;20084;-62
2021/05/14 13:39:43;;;;;;;3.22;2.30;;;;;;;;;;5110924;28;20076;-61
2021/05/14 13:42:08;;;;;;;3.25;2.40;;;;;;;;;;5108104;28;20020;-62
2021/05/14 13:44:33;;;;;;;2.42;1.88;;;;;;;;;;5098576;28;20012;-62
2021/05/14 13:46:59;;;;;;;4.50;2.22;;;;;;;;;;5111861;28;20095;-61
2021/05/14 13:49:24;;;;;;;2.70;2.20;;;;;;;;;;5111409;28;20042;-63
2021/05/14 13:51:49;;;;;;;2.50;2.30;;;;;;;;;;5102505;28;20405;-63
2021/05/14 13:54:14;;;;;;;2.53;2.40;;;;;;;;;;5103221;28;20116;-63
2021/05/14 13:56:39;;;;;;;2.67;2.47;;;;;;;;;;5100504;28;20026;-62
2021/05/14 13:59:05;;;;;;;2.45;2.25;;;;;;;;;;5105329;28;20023;-62
2021/05/14 14:01:30;;;;;;;3.90;3.60;;;;;;;;;;5100051;28;20111;-63
2021/05/14 14:03:57;;;;;;;4.32;4.03;;;;;;;;;;5111540;28;20061;-62
2021/05/14 14:06:22;;;;;;;4.47;4.07;;;;;;;;;;5111696;28;20051;-62
2021/05/14 14:08:48;;;;;;;4.90;4.25;;;;;;;;;;5113205;28;20039;-62
2021/05/14 14:11:13;;;;;;;5.10;4.72;;;;;;;;;;5102500;28;20089;-63
2021/05/14 14:13:39;;;;;;;6.30;5.80;;;;;;;;;;5112554;28;20023;-62
2021/05/14 14:16:04;;;;;;;7.28;6.68;;;;;;;;;;5110455;28;20039;-62
2021/05/14 14:18:29;;;;;;;6.63;6.03;;;;;;;;;;5095382;28;20016;-62
2021/05/14 14:20:54;;;;;;;7.60;6.97;;;;;;;;;;5106264;28;20031;-62
2021/05/14 14:23:20;;;;;;;7.45;6.85;;;;;;;;;;5102525;28;20016;-62
2021/05/14 14:25:45;;;;;;;7.00;6.22;;;;;;;;;;5108849;28;20388;-62
2021/05/14 14:28:10;;;;;;;7.90;6.45;;;;;;;;;;5095849;28;20093;-63
2021/05/14 14:30:35;;;;;;;5.80;5.30;;;;;;;;;;5103066;28;20023;-63
2021/05/14 14:33:01;;;;;;;4.80;4.35;;;;;;;;;;5094689;28;20016;-62
2021/05/14 14:35:26;;;;;;;4.55;4.15;;;;;;;;;;5108773;28;20383;-63
2021/05/14 14:37:51;;;;;;;5.25;4.85;;;;;;;;;;5105403;28;20019;-62